Time;durP1;ratioP1;P1;durP2;ratioP2;P2;SDS_P1;SDS_P2;PMS_P1;PMS_P2;Temp;Humidity;BMP_temperature;BMP_pressure;BME280_temperature;BME280_humidity;BME280_pressure;Samples;Min_cycle;Max_cycle;Signal;HPM_P1;HPM_P2
2023/05/22 00:01:21;;;;;;;11.90;10.80;;;;;;;-147.26;100.00;60209.22;5104548;28;20396;-69
2023/05/22 00:03:47;;;;;;;12.40;11.18;;;;;;;-147.26;100.00;60209.22;5099496;28;20020;-69
2023/05/22 00:06:13;;;;;;;11.77;10.63;;;;;;;-147.26;100.00;60209.22;5099507;28;20028;-69
2023/05/22 00:08:39;;;;;;;11.77;10.73;;;;;;;-147.26;100.00;60209.22;5108055;28;20577;-69
2023/05/22 00:11:04;;;;;;;11.00;10.00;;;;;;;-147.26;100.00;60209.22;5109459;28;20028;-69
2023/05/22 00:13:30;;;;;;;11.80;10.82;;;;;;;-147.26;100.00;60209.22;5097931;28;20022;-68
2023/05/22 00:15:56;;;;;;;11.60;10.70;;;;;;;-147.26;100.00;60209.22;5098232;28;20031;-68
2023/05/22 00:18:21;;;;;;;11.50;10.60;;;;;;;-147.26;100.00;60209.22;5101524;28;20063;-68
2023/05/22 00:20:47;;;;;;;13.02;11.55;;;;;;;-147.26;100.00;60209.22;5095538;28;20031;-68
2023/05/22 00:23:13;;;;;;;12.57;11.52;;;;;;;-147.26;100.00;60209.22;5104855;28;20032;-68
2023/05/22 00:25:38;;;;;;;11.98;11.07;;;;;;;-147.26;100.00;60209.22;5103729;28;20024;-68
2023/05/22 00:28:04;;;;;;;12.00;11.10;;;;;;;-147.26;100.00;60209.22;5087879;28;20068;-68
2023/05/22 00:30:30;;;;;;;13.90;12.63;;;;;;;-147.26;100.00;60209.22;5104149;28;20099;-69
2023/05/22 00:32:56;;;;;;;14.00;12.55;;;;;;;-147.26;100.00;60209.22;5112876;28;20109;-69
2023/05/22 00:35:21;;;;;;;12.82;11.05;;;;;;;-147.26;100.00;60209.22;5111356;28;20051;-69
2023/05/22 00:37:47;;;;;;;13.32;12.18;;;;;;;-147.26;100.00;60209.22;5110609;27;20036;-68
2023/05/22 00:40:14;;;;;;;17.27;15.65;;;;;;;-147.26;100.00;60209.22;5105994;28;20031;-68
2023/05/22 00:42:45;;;;;;;16.13;14.48;;;;;;;-147.26;100.00;60209.22;5105509;28;20480;-69
2023/05/22 00:45:13;;;;;;;16.42;13.88;;;;;;;-147.26;100.00;60209.22;5113151;27;20393;-68
2023/05/22 00:47:39;;;;;;;16.70;12.30;;;;;;;-147.26;100.00;60209.22;5114745;27;20023;-69
2023/05/22 00:50:06;;;;;;;16.27;14.63;;;;;;;-147.26;100.00;60209.22;5109790;27;20023;-69
2023/05/22 00:52:34;;;;;;;21.83;19.33;;;;;;;-147.26;100.00;60209.22;5101166;28;20095;-69
2023/05/22 00:55:00;;;;;;;24.08;20.95;;;;;;;-147.26;100.00;60209.22;5100069;28;20032;-68
2023/05/22 00:57:26;;;;;;;24.15;20.92;;;;;;;-147.26;100.00;60209.22;5105445;28;20034;-68
2023/05/22 00:59:52;;;;;;;18.23;16.33;;;;;;;-147.26;100.00;60209.22;5105391;28;20039;-68
2023/05/22 01:02:17;;;;;;;17.30;14.40;;;;;;;-147.26;100.00;60209.22;5102076;28;20020;-68
2023/05/22 01:04:47;;;;;;;17.23;13.70;;;;;;;-147.26;100.00;60209.22;5110768;28;20031;-69
2023/05/22 01:07:13;;;;;;;15.20;13.10;;;;;;;-147.26;100.00;60209.22;5104701;27;20480;-69
2023/05/22 01:09:39;;;;;;;12.60;11.43;;;;;;;-147.26;100.00;60209.22;5124484;27;20020;-69
2023/05/22 01:12:13;;;;;;;12.88;11.88;;;;;;;-147.26;100.00;60209.22;5100615;28;20024;-69
2023/05/22 01:14:47;;;;;;;13.00;11.90;;;;;;;-147.26;100.00;60209.22;5103154;27;20032;-69
2023/05/22 01:17:33;;;;;;;13.80;12.00;;;;;;;-147.26;100.00;60209.22;5103437;28;20119;-68
2023/05/22 01:20:05;;;;;;;;;;;;;;;-147.26;100.00;60209.22;5104170;28;20024;-69
2023/05/22 01:22:49;;;;;;;11.70;10.63;;;;;;;-147.26;100.00;60209.22;5101955;28;20010;-69
2023/05/22 01:25:53;;;;;;;30.67;26.42;;;;;;;-147.26;100.00;60209.22;5104906;28;20026;-69
2023/05/22 01:28:49;;;;;;;34.05;28.73;;;;;;;-147.26;100.00;60209.22;5102754;28;20020;-69
2023/05/22 01:31:17;;;;;;;18.73;16.83;;;;;;;-147.26;100.00;60209.22;5109630;28;20049;-68
2023/05/22 01:33:47;;;;;;;22.02;19.73;;;;;;;-147.26;100.00;60209.22;5108987;28;20031;-68
2023/05/22 01:36:21;;;;;;;24.10;21.35;;;;;;;-147.26;100.00;60209.22;5127817;27;20543;-69
2023/05/22 01:38:47;;;;;;;21.77;19.40;;;;;;;-147.26;100.00;60209.22;5104804;28;20055;-69
2023/05/22 01:41:13;;;;;;;15.35;13.95;;;;;;;-147.26;100.00;60209.22;5102073;28;20489;-68
2023/05/22 01:43:40;;;;;;;14.20;13.02;;;;;;;-147.26;100.00;60209.22;5109807;27;20031;-68
2023/05/22 01:46:05;;;;;;;13.07;11.98;;;;;;;-147.26;100.00;60209.22;5107718;27;20024;-69
2023/05/22 01:48:31;;;;;;;14.57;12.70;;;;;;;-147.26;100.00;60209.22;5096870;28;20476;-68
2023/05/22 01:51:04;;;;;;;13.27;12.07;;;;;;;-147.26;100.00;60209.22;5101924;28;20023;-69
2023/05/22 01:53:38;;;;;;;13.18;11.98;;;;;;;-147.26;100.00;60209.22;5103884;27;20016;-69
2023/05/22 01:56:18;;;;;;;12.95;11.85;;;;;;;-147.26;100.00;60209.22;5108881;28;20023;-69
2023/05/22 01:58:51;;;;;;;12.38;11.30;;;;;;;-147.26;100.00;60209.22;5109475;28;20035;-69
2023/05/22 02:01:18;;;;;;;12.70;11.60;;;;;;;-147.26;100.00;60209.22;5095407;28;20396;-69
2023/05/22 02:03:45;;;;;;;13.70;12.43;;;;;;;-147.26;100.00;60209.22;5100441;28;20481;-69
2023/05/22 02:06:13;;;;;;;12.93;11.93;;;;;;;-147.26;100.00;60209.22;5113309;27;20066;-68
2023/05/22 02:08:41;;;;;;;13.57;12.38;;;;;;;-147.26;100.00;60209.22;5098584;27;20020;-69
2023/05/22 02:11:08;;;;;;;13.55;12.30;;;;;;;-147.26;100.00;60209.22;5103371;27;20016;-68
2023/05/22 02:13:34;;;;;;;12.45;11.25;;;;;;;-147.26;100.00;60209.22;5078828;28;20082;-69
2023/05/22 02:16:00;;;;;;;13.02;11.82;;;;;;;-147.26;100.00;60209.22;5107530;28;20032;-68
2023/05/22 02:18:29;;;;;;;18.00;12.57;;;;;;;-147.26;100.00;60209.22;5095306;27;20095;-69
2023/05/22 02:20:58;;;;;;;12.27;11.20;;;;;;;-147.26;100.00;60209.22;5110788;27;20467;-69
2023/05/22 02:23:24;;;;;;;11.50;10.60;;;;;;;-147.26;100.00;60209.22;5105886;28;20023;-69
2023/05/22 02:25:50;;;;;;;11.98;10.93;;;;;;;-147.26;100.00;60209.22;5102029;28;20015;-69
2023/05/22 02:28:15;;;;;;;11.88;10.77;;;;;;;-147.26;100.00;60209.22;5108002;28;20024;-68
2023/05/22 02:30:41;;;;;;;12.05;11.13;;;;;;;-147.26;100.00;60209.22;5113787;28;20027;-69
2023/05/22 02:33:08;;;;;;;11.60;10.57;;;;;;;-147.26;100.00;60209.22;5107244;28;20024;-68
2023/05/22 02:35:34;;;;;;;13.85;11.02;;;;;;;-147.26;100.00;60209.22;5109771;27;20016;-69
2023/05/22 02:37:59;;;;;;;12.45;11.35;;;;;;;-147.26;100.00;60209.22;5115865;27;20044;-69
2023/05/22 02:40:25;;;;;;;11.20;10.38;;;;;;;-147.26;100.00;60209.22;5102780;27;20061;-69
2023/05/22 02:42:50;;;;;;;13.77;11.50;;;;;;;-147.26;100.00;60209.22;5111320;28;20019;-69
2023/05/22 02:45:16;;;;;;;12.57;11.32;;;;;;;-147.26;100.00;60209.22;5109646;27;20410;-68
2023/05/22 02:47:41;;;;;;;12.63;11.65;;;;;;;-147.26;100.00;60209.22;5108648;27;20174;-68
2023/05/22 02:50:07;;;;;;;12.68;11.45;;;;;;;-147.26;100.00;60209.22;5115069;27;20107;-69
2023/05/22 02:52:33;;;;;;;17.25;11.10;;;;;;;-147.26;100.00;60209.22;5095706;28;20082;-69
2023/05/22 02:54:59;;;;;;;12.23;11.20;;;;;;;-147.26;100.00;60209.22;5106965;28;20042;-68
2023/05/22 02:57:25;;;;;;;13.05;11.73;;;;;;;-147.26;100.00;60209.22;5116066;28;20015;-69
2023/05/22 02:59:51;;;;;;;12.02;10.32;;;;;;;-147.26;100.00;60209.22;5110570;28;20055;-68
2023/05/22 03:02:17;;;;;;;11.27;10.20;;;;;;;-147.26;100.00;60209.22;5082558;28;20075;-69
2023/05/22 03:04:42;;;;;;;11.77;10.77;;;;;;;-147.26;100.00;60209.22;5120757;27;20054;-69
2023/05/22 03:07:08;;;;;;;13.35;12.15;;;;;;;-147.26;100.00;60209.22;5099158;28;20091;-69
2023/05/22 03:09:33;;;;;;;12.13;11.10;;;;;;;-147.26;100.00;60209.22;5105221;28;20015;-69
2023/05/22 03:11:59;;;;;;;13.50;12.10;;;;;;;-147.26;100.00;60209.22;5094841;28;20027;-69
2023/05/22 03:14:25;;;;;;;11.50;10.50;;;;;;;-147.26;100.00;60209.22;5095922;28;20031;-68
2023/05/22 03:16:50;;;;;;;12.63;11.52;;;;;;;-147.26;100.00;60209.22;5095775;28;20035;-68
2023/05/22 03:19:18;;;;;;;12.63;11.55;;;;;;;-147.26;100.00;60209.22;5077430;28;20024;-69
2023/05/22 03:21:44;;;;;;;12.43;11.43;;;;;;;-147.26;100.00;60209.22;5108639;28;20023;-69
2023/05/22 03:24:11;;;;;;;12.65;11.43;;;;;;;-147.26;100.00;60209.22;5115580;27;20024;-68
2023/05/22 03:26:37;;;;;;;12.73;11.73;;;;;;;-147.26;100.00;60209.22;5100400;27;20019;-69
2023/05/22 03:29:02;;;;;;;12.85;11.63;;;;;;;-147.26;100.00;60209.22;5122401;27;20096;-69
2023/05/22 03:31:30;;;;;;;12.95;11.65;;;;;;;-147.26;100.00;60209.22;5114204;28;20019;-69
2023/05/22 03:33:56;;;;;;;13.82;12.27;;;;;;;-147.26;100.00;60209.22;5103600;28;20036;-69
2023/05/22 03:36:22;;;;;;;13.25;12.05;;;;;;;-147.26;100.00;60209.22;5106956;27;20034;-69
2023/05/22 03:38:47;;;;;;;14.02;12.55;;;;;;;-147.26;100.00;60209.22;5105898;28;20416;-69
2023/05/22 03:41:13;;;;;;;15.77;13.32;;;;;;;-147.26;100.00;60209.22;5115335;28;20073;-68
2023/05/22 03:43:38;;;;;;;13.15;11.95;;;;;;;-147.26;100.00;60209.22;5111798;28;20027;-69
2023/05/22 03:46:04;;;;;;;14.00;12.70;;;;;;;-147.26;100.00;60209.22;5109570;27;20479;-70
2023/05/22 03:48:30;;;;;;;12.73;11.57;;;;;;;-147.26;100.00;60209.22;5102253;27;20028;-68
2023/05/22 03:50:55;;;;;;;12.48;11.43;;;;;;;-147.26;100.00;60209.22;5094087;28;20034;-68
2023/05/22 03:53:21;;;;;;;12.40;11.35;;;;;;;-147.26;100.00;60209.22;5094631;28;20107;-69
2023/05/22 03:55:46;;;;;;;11.93;11.10;;;;;;;-147.26;100.00;60209.22;5102491;28;20028;-69
2023/05/22 03:58:11;;;;;;;12.70;11.43;;;;;;;-147.26;100.00;60209.22;5095483;28;20076;-69
2023/05/22 04:00:37;;;;;;;11.90;10.90;;;;;;;-147.26;100.00;60209.22;5107946;28;20024;-69
2023/05/22 04:03:03;;;;;;;11.27;10.27;;;;;;;-147.26;100.00;60209.22;5101249;28;20031;-69
2023/05/22 04:05:30;;;;;;;10.95;10.18;;;;;;;-147.26;100.00;60209.22;5101590;28;20011;-69
2023/05/22 04:07:56;;;;;;;11.68;10.70;;;;;;;-147.26;100.00;60209.22;5098249;28;20028;-68
2023/05/22 04:10:22;;;;;;;11.95;10.98;;;;;;;-147.26;100.00;60209.22;5096883;28;20023;-70
2023/05/22 04:12:48;;;;;;;10.27;9.52;;;;;;;-147.26;100.00;60209.22;5096471;28;20038;-69
2023/05/22 04:15:14;;;;;;;29.25;26.42;;;;;;;-147.26;100.00;60209.22;5094251;28;20115;-68
2023/05/22 04:17:40;;;;;;;16.15;14.52;;;;;;;-147.26;100.00;60209.22;5095044;28;20063;-68
2023/05/22 04:20:07;;;;;;;12.77;11.68;;;;;;;-147.26;100.00;60209.22;5094166;28;20073;-69
2023/05/22 04:22:32;;;;;;;12.57;11.40;;;;;;;-147.26;100.00;60209.22;5113672;28;20507;-69
2023/05/22 04:24:58;;;;;;;12.10;11.10;;;;;;;-147.26;100.00;60209.22;5106529;28;20434;-69
2023/05/22 04:27:23;;;;;;;13.68;12.52;;;;;;;-147.26;100.00;60209.22;5101211;28;20820;-69
2023/05/22 04:29:50;;;;;;;12.63;11.52;;;;;;;-147.26;100.00;60209.22;5120206;28;20050;-69
2023/05/22 04:32:20;;;;;;;15.02;13.57;;;;;;;-147.26;100.00;60209.22;5098198;28;20058;-69
2023/05/22 04:34:51;;;;;;;19.50;17.67;;;;;;;-147.26;100.00;60209.22;5109359;28;20499;-69
2023/05/22 04:37:18;;;;;;;15.20;13.50;;;;;;;-147.26;100.00;60209.22;5109535;28;20407;-69
2023/05/22 04:39:44;;;;;;;12.50;11.50;;;;;;;-147.26;100.00;60209.22;5107398;28;20080;-68
2023/05/22 04:42:13;;;;;;;11.35;10.32;;;;;;;-147.26;100.00;60209.22;5107250;28;20617;-69
2023/05/22 04:44:39;;;;;;;12.15;10.73;;;;;;;-147.26;100.00;60209.22;5098442;28;20051;-69
2023/05/22 04:47:06;;;;;;;11.70;10.73;;;;;;;-147.26;100.00;60209.22;5102171;28;20381;-68
2023/05/22 04:49:32;;;;;;;11.43;10.35;;;;;;;-147.26;100.00;60209.22;5105805;28;20019;-68
2023/05/22 04:51:58;;;;;;;12.35;11.20;;;;;;;-147.26;100.00;60209.22;5101899;28;20032;-69
2023/05/22 04:54:24;;;;;;;11.85;10.95;;;;;;;-147.26;100.00;60209.22;5107434;28;20027;-68
2023/05/22 04:56:52;;;;;;;11.80;10.60;;;;;;;-147.26;100.00;60209.22;5107817;28;20064;-69
2023/05/22 04:59:22;;;;;;;12.30;11.10;;;;;;;-147.26;100.00;60209.22;5099608;28;20055;-69
2023/05/22 05:01:49;;;;;;;11.18;10.35;;;;;;;-147.26;100.00;60209.22;5102054;28;20377;-68
2023/05/22 05:04:16;;;;;;;16.63;14.95;;;;;;;-147.26;100.00;60209.22;5103510;28;20062;-69
2023/05/22 05:06:42;;;;;;;14.32;13.10;;;;;;;-147.26;100.00;60209.22;5105322;28;20076;-69
2023/05/22 05:09:07;;;;;;;12.68;11.30;;;;;;;-147.26;100.00;60209.22;5106913;28;20027;-68
2023/05/22 05:11:33;;;;;;;11.70;10.73;;;;;;;-147.26;100.00;60209.22;5103320;28;20012;-69
2023/05/22 05:13:58;;;;;;;12.57;11.43;;;;;;;-147.26;100.00;60209.22;5109770;28;20024;-69
2023/05/22 05:16:25;;;;;;;13.05;11.88;;;;;;;-147.26;100.00;60209.22;5097166;28;20406;-69
2023/05/22 05:18:50;;;;;;;12.05;10.60;;;;;;;-147.26;100.00;60209.22;5103788;28;20019;-68
2023/05/22 05:21:16;;;;;;;12.48;11.27;;;;;;;-147.26;100.00;60209.22;5101068;27;20034;-68
2023/05/22 05:23:42;;;;;;;11.73;10.60;;;;;;;-147.26;100.00;60209.22;5116436;27;20019;-68
2023/05/22 05:26:08;;;;;;;14.40;11.10;;;;;;;-147.26;100.00;60209.22;5111422;27;20028;-67
2023/05/22 05:28:33;;;;;;;11.65;10.65;;;;;;;-147.26;100.00;60209.22;5105389;28;20430;-69
2023/05/22 05:30:58;;;;;;;11.98;10.88;;;;;;;-147.26;100.00;60209.22;5096966;27;20017;-69
2023/05/22 05:33:24;;;;;;;12.30;11.30;;;;;;;-147.26;100.00;60209.22;5104378;28;20039;-68
2023/05/22 05:35:51;;;;;;;13.30;10.50;;;;;;;-147.26;100.00;60209.22;5107686;27;20019;-68
2023/05/22 05:38:17;;;;;;;11.30;10.32;;;;;;;-147.26;100.00;60209.22;5107531;28;20043;-68
2023/05/22 05:40:43;;;;;;;11.23;10.27;;;;;;;-147.26;100.00;60209.22;5110557;28;20452;-68
2023/05/22 05:43:09;;;;;;;11.80;9.27;;;;;;;-147.26;100.00;60209.22;5112504;27;20030;-68
2023/05/22 05:45:34;;;;;;;10.05;9.15;;;;;;;-147.26;100.00;60209.22;5108669;27;20020;-68
2023/05/22 05:48:00;;;;;;;10.25;9.35;;;;;;;-147.26;100.00;60209.22;5113020;27;20023;-68
2023/05/22 05:50:25;;;;;;;12.02;10.02;;;;;;;-147.26;100.00;60209.22;5115255;28;20037;-68
2023/05/22 05:52:51;;;;;;;10.02;9.27;;;;;;;-147.26;100.00;60209.22;5101754;27;20023;-68
2023/05/22 05:55:17;;;;;;;9.30;8.60;;;;;;;-147.26;100.00;60209.22;5123399;27;20016;-68
2023/05/22 05:57:42;;;;;;;9.90;8.93;;;;;;;-147.26;100.00;60209.22;5107143;28;20030;-68
2023/05/22 06:00:10;;;;;;;9.18;7.88;;;;;;;-147.26;100.00;60209.22;5103179;27;20089;-68
2023/05/22 06:02:36;;;;;;;9.50;8.40;;;;;;;-147.26;100.00;60209.22;5103366;27;20047;-67
2023/05/22 06:05:04;;;;;;;8.90;8.30;;;;;;;-147.26;100.00;60209.22;5106417;28;20111;-68
2023/05/22 06:07:30;;;;;;;9.40;8.70;;;;;;;-147.26;100.00;60209.22;5092449;28;20020;-68
2023/05/22 06:09:57;;;;;;;8.82;8.02;;;;;;;-147.26;100.00;60209.22;5098347;28;20129;-68
2023/05/22 06:12:23;;;;;;;8.90;8.20;;;;;;;-147.26;100.00;60209.22;5100030;28;20221;-67
2023/05/22 06:14:48;;;;;;;8.43;7.80;;;;;;;-147.26;100.00;60209.22;5106244;28;20043;-68
2023/05/22 06:17:15;;;;;;;9.05;8.13;;;;;;;-147.26;100.00;60209.22;5102708;28;20478;-68
2023/05/22 06:19:41;;;;;;;8.60;7.90;;;;;;;-147.26;100.00;60209.22;5101159;28;20097;-68
2023/05/22 06:22:06;;;;;;;8.25;7.65;;;;;;;-147.26;100.00;60209.22;5117068;27;20141;-68
2023/05/22 06:24:32;;;;;;;8.20;7.50;;;;;;;-147.26;100.00;60209.22;5126020;27;20497;-69
2023/05/22 06:26:58;;;;;;;8.35;7.70;;;;;;;-147.26;100.00;60209.22;5110477;28;20042;-69
2023/05/22 06:29:23;;;;;;;8.15;7.55;;;;;;;-147.26;100.00;60209.22;5104913;28;20046;-68
2023/05/22 06:31:49;;;;;;;10.75;7.60;;;;;;;-147.26;100.00;60209.22;5105132;28;20045;-68
2023/05/22 06:34:14;;;;;;;7.60;6.90;;;;;;;-147.26;100.00;60209.22;5110054;28;20519;-69
2023/05/22 06:36:41;;;;;;;9.00;7.47;;;;;;;-147.26;100.00;60209.22;5113706;27;20544;-68
2023/05/22 06:39:07;;;;;;;7.78;6.97;;;;;;;-147.26;100.00;60209.22;5099388;27;20039;-69
2023/05/22 06:41:34;;;;;;;8.00;7.28;;;;;;;-147.26;100.00;60209.22;5111638;28;20514;-68
2023/05/22 06:44:00;;;;;;;7.57;6.97;;;;;;;-147.26;100.00;60209.22;5111620;27;20103;-69
2023/05/22 06:46:26;;;;;;;7.18;6.35;;;;;;;-147.26;100.00;60209.22;5118729;27;20425;-68
2023/05/22 06:48:52;;;;;;;7.18;6.70;;;;;;;-147.26;100.00;60209.22;5112960;27;20076;-69
2023/05/22 06:51:17;;;;;;;6.28;5.82;;;;;;;-147.26;100.00;60209.22;5103757;28;20024;-68
2023/05/22 06:53:42;;;;;;;6.30;5.70;;;;;;;-147.26;100.00;60209.22;5097591;28;20293;-69
2023/05/22 06:56:08;;;;;;;7.68;7.10;;;;;;;-147.26;100.00;60209.22;5122477;27;20471;-69
2023/05/22 06:58:33;;;;;;;9.52;7.50;;;;;;;-147.26;100.00;60209.22;5113425;28;20075;-66
2023/05/22 07:00:59;;;;;;;8.63;7.82;;;;;;;-147.26;100.00;60209.22;5112923;28;20032;-67
2023/05/22 07:03:26;;;;;;;8.05;7.45;;;;;;;-147.26;100.00;60209.22;5100690;28;20027;-67
2023/05/22 07:05:52;;;;;;;8.95;7.22;;;;;;;-147.26;100.00;60209.22;5095438;28;20042;-67
2023/05/22 07:08:17;;;;;;;7.78;7.07;;;;;;;-147.26;100.00;60209.22;5098387;28;20012;-67
2023/05/22 07:10:43;;;;;;;6.60;6.15;;;;;;;-147.26;100.00;60209.22;5099057;28;20121;-67
2023/05/22 07:13:08;;;;;;;6.80;6.22;;;;;;;-147.26;100.00;60209.22;5113280;27;20019;-67
2023/05/22 07:15:34;;;;;;;8.18;6.53;;;;;;;-147.26;100.00;60209.22;5093911;28;20085;-67
2023/05/22 07:17:59;;;;;;;6.03;5.53;;;;;;;-147.26;100.00;60209.22;5103901;28;20031;-67
2023/05/22 07:20:25;;;;;;;5.97;5.50;;;;;;;-147.26;100.00;60209.22;5098244;28;20366;-67
2023/05/22 07:22:50;;;;;;;5.97;5.47;;;;;;;-147.26;100.00;60209.22;5108046;27;20060;-67
2023/05/22 07:25:16;;;;;;;6.57;5.78;;;;;;;-147.26;100.00;60209.22;5115611;28;20215;-68
2023/05/22 07:27:41;;;;;;;6.07;5.57;;;;;;;-147.26;100.00;60209.22;5098806;28;20027;-67
2023/05/22 07:30:07;;;;;;;6.45;5.95;;;;;;;-147.26;100.00;60209.22;5111930;28;20073;-69
2023/05/22 07:32:32;;;;;;;6.18;5.57;;;;;;;-147.26;100.00;60209.22;5120808;27;20391;-69
2023/05/22 07:34:58;;;;;;;6.55;5.90;;;;;;;-147.26;100.00;60209.22;5112536;28;20111;-69
2023/05/22 07:37:23;;;;;;;7.53;6.70;;;;;;;-147.26;100.00;60209.22;5110667;28;20051;-70
2023/05/22 07:39:49;;;;;;;11.25;8.18;;;;;;;-147.26;100.00;60209.22;5099236;28;20036;-69
2023/05/22 07:42:15;;;;;;;6.70;6.10;;;;;;;-147.26;100.00;60209.22;5096543;28;20143;-67
2023/05/22 07:44:40;;;;;;;5.93;5.43;;;;;;;-147.26;100.00;60209.22;5105527;27;20024;-67
2023/05/22 07:47:05;;;;;;;7.45;5.90;;;;;;;-147.26;100.00;60209.22;5115158;27;20023;-67
2023/05/22 07:49:31;;;;;;;5.97;5.50;;;;;;;-147.26;100.00;60209.22;5116597;27;20019;-67
2023/05/22 07:51:57;;;;;;;6.68;6.18;;;;;;;-147.26;100.00;60209.22;5098803;28;20472;-67
2023/05/22 07:54:22;;;;;;;7.30;6.60;;;;;;;-147.26;100.00;60209.22;5103806;27;20032;-67
2023/05/22 07:56:48;;;;;;;5.97;5.57;;;;;;;-147.26;100.00;60209.22;5096947;28;20020;-67
2023/05/22 07:59:14;;;;;;;6.40;4.78;;;;;;;-147.26;100.00;60209.22;5105235;28;20035;-67
2023/05/22 08:01:43;;;;;;;5.85;5.20;;;;;;;-147.26;100.00;60209.22;5127524;27;20016;-67
2023/05/22 08:04:08;;;;;;;5.60;5.07;;;;;;;-147.26;100.00;60209.22;5095664;28;20455;-67
2023/05/22 08:06:34;;;;;;;5.65;5.15;;;;;;;-147.26;100.00;60209.22;5108110;28;20024;-67
2023/05/22 08:09:01;;;;;;;11.43;6.45;;;;;;;-147.26;100.00;60209.22;5106656;28;20042;-67
2023/05/22 08:11:27;;;;;;;6.00;5.32;;;;;;;-147.26;100.00;60209.22;5100693;28;20041;-68
2023/05/22 08:13:52;;;;;;;5.20;4.80;;;;;;;-147.26;100.00;60209.22;5113736;28;20042;-68
2023/05/22 08:16:18;;;;;;;5.85;5.07;;;;;;;-147.26;100.00;60209.22;5097030;28;20024;-68
2023/05/22 08:18:43;;;;;;;5.75;4.72;;;;;;;-147.26;100.00;60209.22;5100432;28;20020;-69
2023/05/22 08:21:09;;;;;;;5.30;4.65;;;;;;;-147.26;100.00;60209.22;5094826;28;20397;-68
2023/05/22 08:23:35;;;;;;;5.45;4.95;;;;;;;-147.26;100.00;60209.22;5105569;28;20027;-68
2023/05/22 08:26:00;;;;;;;5.93;4.47;;;;;;;-147.26;100.00;60209.22;5102868;28;20023;-68
2023/05/22 08:28:26;;;;;;;6.13;5.40;;;;;;;-147.26;100.00;60209.22;5123079;28;20019;-67
2023/05/22 08:30:53;;;;;;;4.70;4.40;;;;;;;-147.26;100.00;60209.22;5110926;28;20307;-68
2023/05/22 08:33:18;;;;;;;5.00;4.57;;;;;;;-147.26;100.00;60209.22;5103760;28;20020;-68
2023/05/22 08:35:44;;;;;;;7.00;4.40;;;;;;;-147.26;100.00;60209.22;5105431;28;20020;-67
2023/05/22 08:38:09;;;;;;;4.50;4.20;;;;;;;-147.26;100.00;60209.22;5103697;28;20043;-67
2023/05/22 08:40:37;;;;;;;4.47;4.15;;;;;;;-147.26;100.00;60209.22;5110124;28;20023;-68
2023/05/22 08:43:04;;;;;;;4.55;4.13;;;;;;;-147.26;100.00;60209.22;5108622;28;20042;-67
2023/05/22 08:45:32;;;;;;;6.88;4.72;;;;;;;-147.26;100.00;60209.22;5103049;27;20464;-68
2023/05/22 08:48:03;;;;;;;4.43;4.05;;;;;;;-147.26;100.00;60209.22;5110375;28;20024;-67
2023/05/22 08:50:29;;;;;;;4.57;4.28;;;;;;;-147.26;100.00;60209.22;5112413;28;20419;-68
2023/05/22 08:52:58;;;;;;;5.25;4.70;;;;;;;-147.26;100.00;60209.22;5100813;27;20027;-68
2023/05/22 08:55:24;;;;;;;5.18;4.50;;;;;;;-147.26;100.00;60209.22;5098159;28;20075;-68
2023/05/22 08:57:50;;;;;;;5.18;4.53;;;;;;;-147.26;100.00;60209.22;5108676;28;20537;-68
2023/05/22 09:00:17;;;;;;;4.85;4.55;;;;;;;-147.26;100.00;60209.22;5105604;27;20043;-68
2023/05/22 09:02:43;;;;;;;5.28;4.82;;;;;;;-147.26;100.00;60209.22;5108804;28;20055;-68
2023/05/22 09:05:08;;;;;;;6.80;4.95;;;;;;;-147.26;100.00;60209.22;5107128;28;20015;-68
2023/05/22 09:07:39;;;;;;;5.60;4.68;;;;;;;-147.26;100.00;60209.22;5102662;28;20016;-68
2023/05/22 09:10:06;;;;;;;4.72;4.43;;;;;;;-147.26;100.00;60209.22;5111136;27;20015;-67
2023/05/22 09:12:31;;;;;;;5.38;4.30;;;;;;;-147.26;100.00;60209.22;5104588;27;20098;-68
2023/05/22 09:15:07;;;;;;;6.88;4.45;;;;;;;-147.26;100.00;60209.22;5098052;28;20512;-68
2023/05/22 09:17:32;;;;;;;4.53;4.22;;;;;;;-147.26;100.00;60209.22;5096280;27;20024;-68
2023/05/22 09:19:58;;;;;;;4.53;4.22;;;;;;;-147.26;100.00;60209.22;5108794;27;20027;-68
2023/05/22 09:22:35;;;;;;;5.20;4.80;;;;;;;-147.26;100.00;60209.22;5104805;28;20027;-68
2023/05/22 09:25:00;;;;;;;4.88;4.47;;;;;;;-147.26;100.00;60209.22;5103372;28;20110;-68
2023/05/22 09:27:26;;;;;;;4.97;4.57;;;;;;;-147.26;100.00;60209.22;5105005;27;20109;-68
2023/05/22 09:29:54;;;;;;;4.57;4.28;;;;;;;-147.26;100.00;60209.22;5104478;28;20026;-68
2023/05/22 09:32:19;;;;;;;4.82;4.43;;;;;;;-147.26;100.00;60209.22;5109118;28;20058;-68
2023/05/22 09:34:45;;;;;;;9.43;4.43;;;;;;;-147.26;100.00;60209.22;5114095;28;20488;-68
2023/05/22 09:37:12;;;;;;;4.75;4.45;;;;;;;-147.26;100.00;60209.22;5103653;27;20052;-68
2023/05/22 09:39:39;;;;;;;4.55;4.15;;;;;;;-147.26;100.00;60209.22;5113483;28;20716;-68
2023/05/22 09:42:07;;;;;;;5.68;4.30;;;;;;;-147.26;100.00;60209.22;5105914;28;20020;-68
2023/05/22 09:44:32;;;;;;;5.10;4.70;;;;;;;-147.26;100.00;60209.22;5107392;27;20024;-69
2023/05/22 09:46:58;;;;;;;6.30;4.53;;;;;;;-147.26;100.00;60209.22;5123171;27;20027;-69
2023/05/22 09:49:23;;;;;;;4.88;4.25;;;;;;;-147.26;100.00;60209.22;5112947;28;20108;-69
2023/05/22 09:51:53;;;;;;;5.55;4.68;;;;;;;-147.26;100.00;60209.22;5104127;28;20015;-69
2023/05/22 09:54:19;;;;;;;5.13;4.65;;;;;;;-147.26;100.00;60209.22;5107575;27;20028;-69
2023/05/22 09:56:47;;;;;;;4.28;3.97;;;;;;;-147.26;100.00;60209.22;5113623;28;20115;-69
2023/05/22 09:59:15;;;;;;;4.90;4.45;;;;;;;-147.26;100.00;60209.22;5109967;28;20032;-69
2023/05/22 10:01:41;;;;;;;5.55;4.03;;;;;;;-147.26;100.00;60209.22;5101096;27;20027;-69
2023/05/22 10:04:11;;;;;;;8.10;4.60;;;;;;;-147.26;100.00;60209.22;5106618;27;20023;-69
2023/05/22 10:06:38;;;;;;;4.45;4.03;;;;;;;-147.26;100.00;60209.22;5103924;28;20024;-69
2023/05/22 10:09:11;;;;;;;4.65;4.35;;;;;;;-147.26;100.00;60209.22;5101160;28;20036;-69
2023/05/22 10:11:37;;;;;;;5.20;4.43;;;;;;;-147.26;100.00;60209.22;5106373;27;20030;-69
2023/05/22 10:14:03;;;;;;;5.35;4.47;;;;;;;-147.26;100.00;60209.22;5106434;28;20027;-69
2023/05/22 10:16:30;;;;;;;4.32;3.90;;;;;;;-147.26;100.00;60209.22;5117792;27;20492;-68
2023/05/22 10:18:56;;;;;;;6.35;4.97;;;;;;;-147.26;100.00;60209.22;5097798;28;20031;-69
2023/05/22 10:21:21;;;;;;;4.85;4.10;;;;;;;-147.26;100.00;60209.22;5103087;28;20592;-68
2023/05/22 10:23:48;;;;;;;6.20;4.32;;;;;;;-147.26;100.00;60209.22;5104229;28;20452;-68
2023/05/22 10:26:15;;;;;;;4.25;3.85;;;;;;;-147.26;100.00;60209.22;5096838;28;20028;-68
2023/05/22 10:28:46;;;;;;;4.53;3.97;;;;;;;-147.26;100.00;60209.22;5101717;28;20461;-68
2023/05/22 10:31:31;;;;;;;3.67;3.40;;;;;;;-147.26;100.00;60209.22;5108566;28;20080;-68
2023/05/22 10:34:04;;;;;;;3.88;3.55;;;;;;;-147.26;100.00;60209.22;5111928;27;20030;-69
2023/05/22 10:36:41;;;;;;;3.55;3.35;;;;;;;-147.26;100.00;60209.22;5112658;27;20024;-68
2023/05/22 10:39:18;;;;;;;4.53;4.22;;;;;;;-147.26;100.00;60209.22;5110964;28;20418;-68
2023/05/22 10:41:44;;;;;;;4.07;3.78;;;;;;;-147.26;100.00;60209.22;5102499;28;20566;-68
2023/05/22 10:44:10;;;;;;;4.65;4.25;;;;;;;-147.26;100.00;60209.22;5104672;27;20036;-68
2023/05/22 10:46:35;;;;;;;3.95;3.65;;;;;;;-147.26;100.00;60209.22;5121844;27;20396;-68
2023/05/22 10:49:01;;;;;;;4.20;3.97;;;;;;;-147.26;100.00;60209.22;5102946;27;20027;-68
2023/05/22 10:51:26;;;;;;;3.88;3.58;;;;;;;-147.26;100.00;60209.22;5105270;27;20024;-69
2023/05/22 10:53:57;;;;;;;4.55;3.80;;;;;;;-147.26;100.00;60209.22;5096003;28;20088;-68
2023/05/22 10:56:23;;;;;;;4.65;4.07;;;;;;;-147.26;100.00;60209.22;5106506;28;20035;-69
2023/05/22 10:59:06;;;;;;;4.40;4.00;;;;;;;-147.26;100.00;60209.22;5099831;27;20038;-69
2023/05/22 11:01:35;;;;;;;5.00;3.80;;;;;;;-147.26;100.00;60209.22;5114107;28;20516;-69